Time;durP1;ratioP1;P1;durP2;ratioP2;P2;SDS_P1;SDS_P2;PMS_P1;PMS_P2;Temp;Humidity;BMP_temperature;BMP_pressure;BME280_temperature;BME280_humidity;BME280_pressure;Samples;Min_cycle;Max_cycle;Signal;HPM_P1;HPM_P2
2023/12/21 00:01:33;;;;;;;;;;;18.40;65.10;;;;;;5059232;28;1906;-70
2023/12/21 00:03:58;;;;;;;;;;;18.40;65.10;;;;;;5058420;28;1199;-70
2023/12/21 00:06:24;;;;;;;;;;;18.40;65.10;;;;;;5095155;28;2152;-71
2023/12/21 00:08:49;;;;;;;;;;;18.40;65.20;;;;;;5062846;28;1401;-70
2023/12/21 00:11:15;;;;;;;;;;;18.40;65.20;;;;;;5062506;28;1331;-70
2023/12/21 00:13:40;;;;;;;;;;;18.40;65.20;;;;;;5064107;28;1181;-73
2023/12/21 00:16:06;;;;;;;;;;;18.40;65.20;;;;;;5061350;28;1404;-70
2023/12/21 00:18:31;;;;;;;;;;;18.40;65.30;;;;;;5061637;28;1270;-70
2023/12/21 00:20:57;;;;;;;;;;;18.40;65.30;;;;;;5092744;28;1984;-70
2023/12/21 00:23:22;;;;;;;;;;;18.40;65.30;;;;;;5059289;28;1395;-71
2023/12/21 00:25:48;;;;;;;;;;;18.40;65.30;;;;;;5061046;28;1583;-70
2023/12/21 00:28:13;;;;;;;;;;;18.40;65.30;;;;;;5061336;28;1370;-70
2023/12/21 00:30:39;;;;;;;;;;;18.40;65.30;;;;;;5093791;28;1299;-70
2023/12/21 00:33:04;;;;;;;;;;;18.40;65.30;;;;;;5061521;28;1517;-71
2023/12/21 00:35:30;;;;;;;;;;;18.40;65.40;;;;;;5059449;28;1313;-70
2023/12/21 00:37:55;;;;;;;;;;;18.40;65.40;;;;;;5093318;28;1268;-71
2023/12/21 00:40:21;;;;;;;;;;;18.40;65.40;;;;;;5060408;28;1977;-70
2023/12/21 00:42:46;;;;;;;;;;;18.40;65.40;;;;;;5061715;28;1252;-70
2023/12/21 00:45:12;;;;;;;;;;;18.40;65.50;;;;;;5061173;28;958;-70
2023/12/21 00:47:37;;;;;;;;;;;18.40;65.40;;;;;;5060472;28;1145;-71
2023/12/21 00:50:03;;;;;;;;;;;18.30;65.40;;;;;;5058210;28;1323;-71
2023/12/21 00:52:28;;;;;;;;;;;18.40;65.50;;;;;;5060980;28;1366;-70
2023/12/21 00:54:54;;;;;;;;;;;18.30;65.40;;;;;;5060129;28;1338;-70
2023/12/21 00:57:19;;;;;;;;;;;18.30;65.40;;;;;;5059919;28;1395;-70
2023/12/21 00:59:44;;;;;;;;;;;18.30;65.40;;;;;;5092854;28;1513;-71
2023/12/21 01:02:10;;;;;;;;;;;18.30;65.40;;;;;;5060626;28;1890;-70
2023/12/21 01:04:35;;;;;;;;;;;18.30;65.50;;;;;;5061637;28;1569;-72
2023/12/21 01:07:01;;;;;;;;;;;18.30;65.50;;;;;;5061156;28;1652;-70
2023/12/21 01:09:27;;;;;;;;;;;18.30;65.50;;;;;;5076920;28;1312;-70
2023/12/21 01:11:52;;;;;;;;;;;18.30;65.50;;;;;;5057824;28;1300;-70
2023/12/21 01:14:17;;;;;;;;;;;18.30;65.50;;;;;;5055425;28;1287;-70
2023/12/21 01:16:43;;;;;;;;;;;18.40;65.60;;;;;;5091807;28;1394;-70
2023/12/21 01:19:08;;;;;;;;;;;18.30;65.50;;;;;;5061823;28;1110;-70
2023/12/21 01:21:34;;;;;;;;;;;18.30;65.50;;;;;;5084935;28;1968;-71
2023/12/21 01:23:59;;;;;;;;;;;18.30;65.50;;;;;;5059859;28;1415;-70
2023/12/21 01:26:25;;;;;;;;;;;18.30;65.60;;;;;;5063283;28;1388;-70
2023/12/21 01:28:51;;;;;;;;;;;18.30;65.60;;;;;;5091869;28;1460;-70
2023/12/21 01:31:16;;;;;;;;;;;18.30;65.60;;;;;;5058020;28;1351;-72
2023/12/21 01:33:42;;;;;;;;;;;18.30;65.60;;;;;;5058768;28;1410;-71
2023/12/21 01:36:07;;;;;;;;;;;18.30;65.60;;;;;;5061178;28;1434;-70
2023/12/21 01:38:33;;;;;;;;;;;18.30;65.60;;;;;;5056312;28;1286;-71
2023/12/21 01:40:59;;;;;;;;;;;18.30;65.60;;;;;;5057494;28;1910;-71
2023/12/21 01:43:24;;;;;;;;;;;18.30;65.60;;;;;;5062126;28;1382;-70
2023/12/21 01:45:50;;;;;;;;;;;18.30;65.60;;;;;;5060497;28;1337;-71
2023/12/21 01:48:15;;;;;;;;;;;18.30;65.60;;;;;;5056952;28;1276;-70
2023/12/21 01:50:41;;;;;;;;;;;18.30;65.60;;;;;;5074521;28;1431;-70
2023/12/21 01:53:09;;;;;;;;;;;18.30;65.60;;;;;;5059820;28;2214;-70
2023/12/21 01:55:34;;;;;;;;;;;18.30;65.60;;;;;;5058532;28;1356;-70
2023/12/21 01:58:00;;;;;;;;;;;18.30;65.60;;;;;;5091193;28;1455;-70
2023/12/21 02:00:26;;;;;;;;;;;18.30;65.60;;;;;;5056238;28;1959;-71
2023/12/21 02:02:51;;;;;;;;;;;18.30;65.60;;;;;;5059420;28;1490;-70
2023/12/21 02:05:17;;;;;;;;;;;18.30;65.60;;;;;;5091435;28;1284;-70
2023/12/21 02:07:42;;;;;;;;;;;18.30;65.60;;;;;;5056754;28;1289;-70
2023/12/21 02:10:09;;;;;;;;;;;18.30;65.70;;;;;;5061847;28;1483;-70
2023/12/21 02:12:35;;;;;;;;;;;18.30;65.70;;;;;;5059193;28;1501;-70
2023/12/21 02:15:00;;;;;;;;;;;18.30;65.70;;;;;;5057585;28;1208;-70
2023/12/21 02:17:26;;;;;;;;;;;18.30;65.60;;;;;;5093553;28;1253;-72
2023/12/21 02:19:51;;;;;;;;;;;18.30;65.70;;;;;;5090437;28;1426;-70
2023/12/21 02:22:17;;;;;;;;;;;18.30;65.60;;;;;;5061839;28;1910;-70
2023/12/21 02:24:42;;;;;;;;;;;18.30;65.70;;;;;;5092678;28;1304;-71
2023/12/21 02:27:07;;;;;;;;;;;18.30;65.70;;;;;;5061152;28;1355;-70
2023/12/21 02:29:33;;;;;;;;;;;18.30;65.70;;;;;;5090552;28;1297;-70
2023/12/21 02:31:58;;;;;;;;;;;18.30;65.70;;;;;;5060300;28;1327;-71
2023/12/21 02:34:24;;;;;;;;;;;18.30;65.70;;;;;;5057999;28;1341;-72
2023/12/21 02:36:49;;;;;;;;;;;18.30;65.70;;;;;;5058200;28;1326;-70
2023/12/21 02:39:15;;;;;;;;;;;18.30;65.70;;;;;;5058225;28;1223;-73
2023/12/21 02:41:40;;;;;;;;;;;18.30;65.70;;;;;;5059135;28;1973;-72
2023/12/21 02:44:06;;;;;;;;;;;18.30;65.80;;;;;;5058778;28;1252;-69
2023/12/21 02:46:32;;;;;;;;;;;18.30;65.70;;;;;;5059864;28;1508;-70
2023/12/21 02:48:57;;;;;;;;;;;18.30;65.70;;;;;;5092493;28;1338;-69
2023/12/21 02:51:22;;;;;;;;;;;18.30;65.70;;;;;;5058402;28;1558;-69
2023/12/21 02:53:48;;;;;;;;;;;18.30;65.80;;;;;;5056884;28;967;-69
2023/12/21 02:56:13;;;;;;;;;;;18.30;65.80;;;;;;5057199;28;1223;-70
2023/12/21 02:58:39;;;;;;;;;;;18.30;65.80;;;;;;5089082;28;1034;-71
2023/12/21 03:01:05;;;;;;;;;;;18.30;66.50;;;;;;5089953;28;1902;-71
2023/12/21 03:03:30;;;;;;;;;;;18.30;65.80;;;;;;5090612;28;1337;-70
2023/12/21 03:05:56;;;;;;;;;;;18.30;65.80;;;;;;5058046;28;1443;-70
2023/12/21 03:08:22;;;;;;;;;;;18.30;65.80;;;;;;5057396;28;1402;-70
2023/12/21 03:10:47;;;;;;;;;;;18.30;65.80;;;;;;5059537;28;1535;-69
2023/12/21 03:13:13;;;;;;;;;;;18.30;65.80;;;;;;5057836;28;1120;-70
2023/12/21 03:15:38;;;;;;;;;;;18.30;65.80;;;;;;5088601;28;1573;-69
2023/12/21 03:18:04;;;;;;;;;;;18.30;65.80;;;;;;5057062;28;1334;-69
2023/12/21 03:20:29;;;;;;;;;;;18.30;65.80;;;;;;5058021;28;1905;-71
2023/12/21 03:22:55;;;;;;;;;;;18.30;65.80;;;;;;5058209;28;1323;-70
2023/12/21 03:25:20;;;;;;;;;;;18.30;65.80;;;;;;5090855;28;1713;-69
2023/12/21 03:27:47;;;;;;;;;;;18.20;65.80;;;;;;5057927;28;1262;-71
2023/12/21 03:30:12;;;;;;;;;;;18.30;65.80;;;;;;5089538;28;1252;-69
2023/12/21 03:32:38;;;;;;;;;;;18.30;65.80;;;;;;5057729;28;1450;-70
2023/12/21 03:35:05;;;;;;;;;;;18.20;65.80;;;;;;5054729;28;1466;-70
2023/12/21 03:37:31;;;;;;;;;;;18.20;65.90;;;;;;5059821;28;1458;-69
2023/12/21 03:39:56;;;;;;;;;;;18.30;65.90;;;;;;5056579;28;1296;-68
2023/12/21 03:42:22;;;;;;;;;;;18.20;65.80;;;;;;5057205;28;1922;-71
2023/12/21 03:44:47;;;;;;;;;;;18.20;65.80;;;;;;5058773;28;1396;-69
2023/12/21 03:47:13;;;;;;;;;;;18.30;65.80;;;;;;5055892;28;1351;-69
2023/12/21 03:49:39;;;;;;;;;;;18.30;65.90;;;;;;5042657;28;1469;-69
2023/12/21 03:52:05;;;;;;;;;;;18.20;65.80;;;;;;5057908;28;1373;-69
2023/12/21 03:54:30;;;;;;;;;;;18.30;65.90;;;;;;5056933;28;1383;-69
2023/12/21 03:56:56;;;;;;;;;;;18.30;65.90;;;;;;5055912;28;1413;-69
2023/12/21 03:59:21;;;;;;;;;;;18.20;65.90;;;;;;5057558;28;1386;-69
2023/12/21 04:01:47;;;;;;;;;;;18.30;65.90;;;;;;5058550;28;1967;-69
2023/12/21 04:04:12;;;;;;;;;;;18.20;65.90;;;;;;5056649;28;1167;-68
2023/12/21 04:06:37;;;;;;;;;;;18.20;65.90;;;;;;5059459;28;1303;-69
2023/12/21 04:09:03;;;;;;;;;;;18.20;65.90;;;;;;5058035;28;1329;-70
2023/12/21 04:11:28;;;;;;;;;;;18.20;65.90;;;;;;5087640;28;1280;-70
2023/12/21 04:13:54;;;;;;;;;;;18.20;65.90;;;;;;5091462;28;1147;-69
2023/12/21 04:16:19;;;;;;;;;;;18.20;65.90;;;;;;5056191;28;1004;-68
2023/12/21 04:18:45;;;;;;;;;;;18.20;65.90;;;;;;5060468;28;1277;-71
2023/12/21 04:21:10;;;;;;;;;;;18.20;65.90;;;;;;5060503;28;1913;-69
2023/12/21 04:23:36;;;;;;;;;;;18.20;65.90;;;;;;5060893;28;1314;-70
2023/12/21 04:26:01;;;;;;;;;;;18.20;65.90;;;;;;5059067;28;1258;-70
2023/12/21 04:28:27;;;;;;;;;;;18.20;65.90;;;;;;5054808;28;1428;-70
2023/12/21 04:30:52;;;;;;;;;;;18.20;65.90;;;;;;5058696;28;1549;-71
2023/12/21 04:33:18;;;;;;;;;;;18.20;65.90;;;;;;5056281;28;1548;-71
2023/12/21 04:35:44;;;;;;;;;;;18.20;65.90;;;;;;5057973;28;955;-71
2023/12/21 04:38:09;;;;;;;;;;;18.20;65.90;;;;;;5056954;28;1264;-71
2023/12/21 04:40:35;;;;;;;;;;;18.20;65.90;;;;;;5059571;28;1902;-71
2023/12/21 04:43:00;;;;;;;;;;;18.20;66.00;;;;;;5058869;28;1220;-70
2023/12/21 04:45:26;;;;;;;;;;;18.20;65.90;;;;;;5059269;28;1364;-72
2023/12/21 04:47:51;;;;;;;;;;;18.20;66.00;;;;;;5060680;28;1356;-72
2023/12/21 04:50:18;;;;;;;;;;;18.20;65.90;;;;;;5061940;28;1580;-73
2023/12/21 04:52:43;;;;;;;;;;;18.20;66.00;;;;;;5091810;28;1235;-73
2023/12/21 04:55:08;;;;;;;;;;;18.20;66.00;;;;;;5062554;28;1463;-73
2023/12/21 04:57:34;;;;;;;;;;;18.20;66.00;;;;;;5061828;28;1460;-71
2023/12/21 05:00:00;;;;;;;;;;;18.20;65.90;;;;;;5092662;28;1455;-72
2023/12/21 05:02:25;;;;;;;;;;;18.20;66.00;;;;;;5093311;28;1906;-73
2023/12/21 05:04:51;;;;;;;;;;;18.20;66.00;;;;;;5057764;28;1547;-73
2023/12/21 05:07:18;;;;;;;;;;;18.20;66.00;;;;;;5061023;28;1447;-73
2023/12/21 05:09:43;;;;;;;;;;;18.20;66.00;;;;;;5059260;28;1425;-73
2023/12/21 05:12:09;;;;;;;;;;;18.20;66.00;;;;;;5059957;28;1722;-70
2023/12/21 05:14:34;;;;;;;;;;;18.20;66.00;;;;;;5058008;28;1143;-71
2023/12/21 05:17:00;;;;;;;;;;;18.20;65.90;;;;;;5060712;28;1429;-70
2023/12/21 05:19:25;;;;;;;;;;;18.30;65.90;;;;;;5061247;28;1375;-70
2023/12/21 05:21:51;;;;;;;;;;;18.30;65.80;;;;;;5059964;28;1959;-70
2023/12/21 05:24:16;;;;;;;;;;;18.30;65.80;;;;;;5090747;28;894;-71
2023/12/21 05:26:42;;;;;;;;;;;18.30;65.60;;;;;;5058575;28;1388;-71
2023/12/21 05:29:07;;;;;;;;;;;18.30;65.50;;;;;;5057675;28;1376;-71
2023/12/21 05:31:34;;;;;;;;;;;18.40;65.50;;;;;;5092662;28;1357;-72
2023/12/21 05:33:59;;;;;;;;;;;18.40;65.40;;;;;;5059619;28;1352;-72
2023/12/21 05:36:24;;;;;;;;;;;18.40;65.30;;;;;;5059786;28;1423;-71
2023/12/21 05:38:50;;;;;;;;;;;18.40;65.20;;;;;;5061087;28;1317;-72
2023/12/21 05:41:16;;;;;;;;;;;18.50;65.20;;;;;;5060140;28;1930;-71
2023/12/21 05:43:41;;;;;;;;;;;18.50;65.10;;;;;;5061745;28;1352;-71
2023/12/21 05:46:07;;;;;;;;;;;18.50;65.00;;;;;;5058708;28;1265;-71
2023/12/21 05:48:32;;;;;;;;;;;18.50;65.00;;;;;;5060626;28;1412;-72
2023/12/21 05:50:58;;;;;;;;;;;18.50;64.90;;;;;;5057815;28;1300;-71
2023/12/21 05:53:24;;;;;;;;;;;18.50;64.90;;;;;;5059708;28;1258;-71
2023/12/21 05:55:49;;;;;;;;;;;18.50;64.80;;;;;;5059063;28;1317;-74
2023/12/21 05:58:14;;;;;;;;;;;18.60;64.70;;;;;;5056895;28;1471;-74
2023/12/21 06:00:40;;;;;;;;;;;18.50;64.60;;;;;;5060981;28;1905;-73
2023/12/21 06:03:05;;;;;;;;;;;18.60;64.60;;;;;;5058804;28;1324;-74
2023/12/21 06:05:31;;;;;;;;;;;18.60;64.60;;;;;;5057876;28;1499;-74
2023/12/21 06:07:57;;;;;;;;;;;18.60;64.50;;;;;;5060135;28;967;-74
2023/12/21 06:10:22;;;;;;;;;;;18.60;64.50;;;;;;5056586;28;1601;-74
2023/12/21 06:12:47;;;;;;;;;;;18.60;64.40;;;;;;5093045;28;1482;-74
2023/12/21 06:15:13;;;;;;;;;;;18.60;64.30;;;;;;5060633;28;1348;-74
2023/12/21 06:17:38;;;;;;;;;;;18.70;64.40;;;;;;5058412;28;1144;-72
2023/12/21 06:20:04;;;;;;;;;;;18.70;64.30;;;;;;5057770;28;1439;-72
2023/12/21 06:22:30;;;;;;;;;;;18.70;64.30;;;;;;5060112;28;1967;-72
2023/12/21 06:24:55;;;;;;;;;;;18.70;64.30;;;;;;5058778;28;1319;-72
2023/12/21 06:27:21;;;;;;;;;;;18.70;64.20;;;;;;5059141;28;1445;-70
2023/12/21 06:29:47;;;;;;;;;;;18.70;64.20;;;;;;5060275;28;1362;-71
2023/12/21 06:32:15;;;;;;;;;;;18.70;64.20;;;;;;5062232;28;1480;-69
2023/12/21 06:34:40;;;;;;;;;;;18.70;64.20;;;;;;5060666;28;1692;-70
2023/12/21 06:37:07;;;;;;;;;;;18.70;64.10;;;;;;5059766;28;1466;-72
2023/12/21 06:39:33;;;;;;;;;;;18.70;64.10;;;;;;5059616;28;1361;-70
2023/12/21 06:41:58;;;;;;;;;;;18.70;64.10;;;;;;5059440;28;1909;-69
2023/12/21 06:44:24;;;;;;;;;;;18.70;64.10;;;;;;5057467;28;1365;-69
2023/12/21 06:46:50;;;;;;;;;;;18.70;64.10;;;;;;5056796;28;1262;-70
2023/12/21 06:49:16;;;;;;;;;;;18.70;64.10;;;;;;5055301;28;1244;-70
2023/12/21 06:51:44;;;;;;;;;;;18.70;64.10;;;;;;5090080;28;1357;-70
2023/12/21 06:54:10;;;;;;;;;;;18.70;64.10;;;;;;5056711;28;1329;-71
2023/12/21 06:56:36;;;;;;;;;;;18.70;64.10;;;;;;5060563;28;1340;-72
2023/12/21 06:59:02;;;;;;;;;;;18.70;64.10;;;;;;5057790;28;1406;-71
2023/12/21 07:01:27;;;;;;;;;;;18.70;64.20;;;;;;5090004;28;1973;-70
2023/12/21 07:03:53;;;;;;;;;;;18.70;64.20;;;;;;5059731;28;1388;-72
2023/12/21 07:06:18;;;;;;;;;;;18.70;64.20;;;;;;5060102;28;1389;-72
2023/12/21 07:08:44;;;;;;;;;;;18.70;64.20;;;;;;5058614;28;1387;-71
2023/12/21 07:11:12;;;;;;;;;;;18.70;64.20;;;;;;5058925;28;1378;-71
2023/12/21 07:13:37;;;;;;;;;;;18.70;64.20;;;;;;5055267;28;1329;-72
2023/12/21 07:16:03;;;;;;;;;;;18.70;64.30;;;;;;5057856;28;1334;-71
2023/12/21 07:18:28;;;;;;;;;;;18.70;64.30;;;;;;5058719;28;1433;-71
2023/12/21 07:20:54;;;;;;;;;;;18.60;64.30;;;;;;5090665;28;1963;-69
2023/12/21 07:23:19;;;;;;;;;;;18.60;64.30;;;;;;5060194;28;1220;-70
2023/12/21 07:25:45;;;;;;;;;;;18.60;64.30;;;;;;5054063;28;1330;-73
2023/12/21 07:28:10;;;;;;;;;;;18.60;64.30;;;;;;5058749;28;1378;-72
2023/12/21 07:30:36;;;;;;;;;;;18.60;64.30;;;;;;5057897;28;1818;-68
2023/12/21 07:33:01;;;;;;;;;;;18.60;64.40;;;;;;5059883;28;1499;-70
2023/12/21 07:35:27;;;;;;;;;;;18.60;64.40;;;;;;5057695;28;1478;-70
2023/12/21 07:37:52;;;;;;;;;;;18.60;64.40;;;;;;5056642;28;1370;-69
2023/12/21 07:40:18;;;;;;;;;;;18.60;64.40;;;;;;5057823;28;1995;-70
2023/12/21 07:42:43;;;;;;;;;;;18.60;64.40;;;;;;5057543;28;1462;-70
2023/12/21 07:45:09;;;;;;;;;;;18.60;64.50;;;;;;5057956;28;1373;-69
2023/12/21 07:47:34;;;;;;;;;;;18.60;64.50;;;;;;5054570;28;1428;-70
2023/12/21 07:50:00;;;;;;;;;;;18.60;64.50;;;;;;5058594;28;1296;-69
2023/12/21 07:52:25;;;;;;;;;;;18.60;64.50;;;;;;5056304;28;1238;-69
2023/12/21 07:54:51;;;;;;;;;;;18.60;64.60;;;;;;5088962;28;1243;-70
2023/12/21 07:57:16;;;;;;;;;;;18.60;64.60;;;;;;5059500;28;1159;-70
2023/12/21 07:59:41;;;;;;;;;;;18.60;64.60;;;;;;5054797;28;1366;-69
2023/12/21 08:02:07;;;;;;;;;;;18.60;64.60;;;;;;5057932;28;1969;-71
2023/12/21 08:04:32;;;;;;;;;;;18.60;64.60;;;;;;5056115;28;1418;-71
2023/12/21 08:06:58;;;;;;;;;;;18.60;64.60;;;;;;5088273;28;1340;-71
2023/12/21 08:09:24;;;;;;;;;;;18.50;64.60;;;;;;5090819;28;1257;-71
2023/12/21 08:11:49;;;;;;;;;;;18.50;64.70;;;;;;5056157;28;1527;-69
2023/12/21 08:14:15;;;;;;;;;;;18.50;64.70;;;;;;5057248;28;1348;-71
2023/12/21 08:16:41;;;;;;;;;;;18.50;64.70;;;;;;5056594;28;1490;-68
2023/12/21 08:19:07;;;;;;;;;;;18.50;64.70;;;;;;5055653;28;1222;-69
2023/12/21 08:21:32;;;;;;;;;;;18.50;64.70;;;;;;5063985;28;1898;-69
2023/12/21 08:23:58;;;;;;;;;;;18.50;64.70;;;;;;5096833;28;1441;-69
2023/12/21 08:26:23;;;;;;;;;;;18.50;64.70;;;;;;5065130;28;1243;-69
2023/12/21 08:28:49;;;;;;;;;;;18.50;64.70;;;;;;5093975;28;1191;-72
2023/12/21 08:31:24;;;;;;;;;;;18.50;64.80;;;;;;5094770;28;1453;-71
2023/12/21 08:33:50;;;;;;;;;;;18.50;64.80;;;;;;5058255;28;1666;-70
2023/12/21 08:36:15;;;;;;;;;;;18.50;64.80;;;;;;5059338;28;1536;-69
2023/12/21 08:38:41;;;;;;;;;;;18.50;64.80;;;;;;5061027;28;1217;-69
2023/12/21 08:41:07;;;;;;;;;;;18.50;64.80;;;;;;5059912;28;1894;-69
2023/12/21 08:43:32;;;;;;;;;;;18.50;64.90;;;;;;5062972;28;1258;-69
2023/12/21 08:45:58;;;;;;;;;;;18.50;64.90;;;;;;5062716;28;1443;-69
2023/12/21 08:48:23;;;;;;;;;;;18.50;64.90;;;;;;5060349;28;1261;-69
2023/12/21 08:50:49;;;;;;;;;;;18.50;64.90;;;;;;5059209;28;1386;-70
2023/12/21 08:53:14;;;;;;;;;;;18.50;64.90;;;;;;5061647;28;2120;-70
2023/12/21 08:55:40;;;;;;;;;;;18.50;64.90;;;;;;5061917;28;1908;-70
2023/12/21 08:58:05;;;;;;;;;;;18.50;65.00;;;;;;5062002;28;1216;-69
2023/12/21 09:00:31;;;;;;;;;;;18.50;64.90;;;;;;5059820;28;1964;-70
2023/12/21 09:02:57;;;;;;;;;;;18.50;65.00;;;;;;5062601;28;1261;-69
2023/12/21 09:05:23;;;;;;;;;;;18.50;65.00;;;;;;5092917;28;1053;-70
2023/12/21 09:07:49;;;;;;;;;;;18.50;65.00;;;;;;5059502;28;1464;-70
2023/12/21 09:10:14;;;;;;;;;;;18.50;65.00;;;;;;5058632;28;1343;-71
2023/12/21 09:12:40;;;;;;;;;;;18.50;64.90;;;;;;5059392;28;1429;-70
2023/12/21 09:15:06;;;;;;;;;;;18.50;64.90;;;;;;5060550;28;1230;-70
2023/12/21 09:17:31;;;;;;;;;;;18.50;64.80;;;;;;5058204;28;1401;-71
2023/12/21 09:19:57;;;;;;;;;;;18.50;64.80;;;;;;5059028;28;1669;-69
2023/12/21 09:22:22;;;;;;;;;;;18.50;64.70;;;;;;5059446;28;1909;-71
2023/12/21 09:24:48;;;;;;;;;;;18.50;64.60;;;;;;5092375;28;1476;-71
2023/12/21 09:27:14;;;;;;;;;;;18.60;64.60;;;;;;5094412;28;1659;-69
2023/12/21 09:29:40;;;;;;;;;;;18.60;64.60;;;;;;5060563;28;1319;-69
2023/12/21 09:32:06;;;;;;;;;;;18.60;64.50;;;;;;5061700;28;1312;-68
2023/12/21 09:34:31;;;;;;;;;;;18.60;64.40;;;;;;5061021;28;1270;-69
2023/12/21 09:36:57;;;;;;;;;;;18.60;64.40;;;;;;5079738;28;1473;-69
2023/12/21 09:39:22;;;;;;;;;;;18.60;64.40;;;;;;5059442;28;1414;-68
2023/12/21 09:41:49;;;;;;;;;;;18.60;64.40;;;;;;5061496;28;1898;-69
2023/12/21 09:44:17;;;;;;;;;;;18.60;64.40;;;;;;5095145;28;1356;-69
2023/12/21 09:46:45;;;;;;;;;;;18.60;64.40;;;;;;5088106;28;1247;-69
2023/12/21 09:49:11;;;;;;;;;;;18.60;64.40;;;;;;5091421;28;1788;-69
2023/12/21 09:51:37;;;;;;;;;;;18.60;64.40;;;;;;5090336;28;1293;-69
2023/12/21 09:54:04;;;;;;;;;;;18.60;64.40;;;;;;5092493;28;1317;-71
2023/12/21 09:56:30;;;;;;;;;;;18.60;64.40;;;;;;5056765;28;1684;-72
2023/12/21 09:58:56;;;;;;;;;;;18.60;64.40;;;;;;5059750;28;1153;-69
2023/12/21 10:01:21;;;;;;;;;;;18.60;64.40;;;;;;5090594;28;1906;-70
2023/12/21 10:03:47;;;;;;;;;;;18.60;64.40;;;;;;5058143;28;1382;-70
2023/12/21 10:06:12;;;;;;;;;;;18.60;64.50;;;;;;5059007;28;1825;-70
2023/12/21 10:08:38;;;;;;;;;;;18.60;64.40;;;;;;5088937;28;1251;-70
2023/12/21 10:11:06;;;;;;;;;;;18.60;64.40;;;;;;5056260;28;1390;-69
2023/12/21 10:13:32;;;;;;;;;;;18.60;64.40;;;;;;5057556;28;2108;-70
2023/12/21 10:15:59;;;;;;;;;;;18.60;64.40;;;;;;5089383;28;1993;-69
2023/12/21 10:18:26;;;;;;;;;;;18.60;64.30;;;;;;5091154;28;1935;-70
2023/12/21 10:20:53;;;;;;;;;;;18.60;64.30;;;;;;5055386;28;1981;-70
2023/12/21 10:23:19;;;;;;;;;;;18.60;64.20;;;;;;5057775;28;1242;-70
2023/12/21 10:25:45;;;;;;;;;;;18.70;64.20;;;;;;5089190;28;962;-70
2023/12/21 10:28:10;;;;;;;;;;;18.70;64.20;;;;;;5058914;28;1379;-70
2023/12/21 10:30:36;;;;;;;;;;;18.60;64.10;;;;;;5059613;28;1370;-68
2023/12/21 10:33:02;;;;;;;;;;;18.70;64.10;;;;;;5059590;28;1944;-71
2023/12/21 10:35:27;;;;;;;;;;;18.70;64.20;;;;;;5056697;28;2084;-69
2023/12/21 10:37:53;;;;;;;;;;;18.70;64.10;;;;;;5056390;28;1319;-69
2023/12/21 10:40:18;;;;;;;;;;;18.70;64.10;;;;;;5058442;28;1509;-69
2023/12/21 10:42:47;;;;;;;;;;;18.60;64.10;;;;;;5057307;28;1902;-69
2023/12/21 10:45:13;;;;;;;;;;;18.60;64.10;;;;;;5059568;28;1701;-69
2023/12/21 10:47:41;;;;;;;;;;;18.70;64.20;;;;;;5057055;28;1330;-71
2023/12/21 10:50:07;;;;;;;;;;;18.70;64.20;;;;;;5089852;28;2020;-72
2023/12/21 10:52:34;;;;;;;;;;;18.60;64.20;;;;;;5060032;28;1156;-71
2023/12/21 10:55:00;;;;;;;;;;;18.60;64.20;;;;;;5090321;28;1258;-72
2023/12/21 10:57:26;;;;;;;;;;;18.60;64.20;;;;;;5077132;28;1382;-70
2023/12/21 10:59:51;;;;;;;;;;;18.60;64.30;;;;;;5054991;28;1579;-71
2023/12/21 11:02:16;;;;;;;;;;;18.60;64.30;;;;;;5058994;28;1969;-71
2023/12/21 11:04:42;;;;;;;;;;;18.60;64.30;;;;;;5089080;28;2216;-70
2023/12/21 11:07:08;;;;;;;;;;;18.60;64.30;;;;;;5056167;28;1333;-71
2023/12/21 11:09:33;;;;;;;;;;;18.60;64.30;;;;;;5073585;28;1599;-70
2023/12/21 11:11:59;;;;;;;;;;;18.60;65.10;;;;;;5090763;28;1301;-70
2023/12/21 11:14:24;;;;;;;;;;;18.60;64.30;;;;;;5058252;28;1314;-71
2023/12/21 11:16:54;;;;;;;;;;;18.60;64.30;;;;;;5090219;28;1270;-70
2023/12/21 11:19:33;;;;;;;;;;;18.60;64.20;;;;;;5059677;28;1274;-69
2023/12/21 11:21:59;;;;;;;;;;;18.60;64.30;;;;;;5059970;28;1897;-71
2023/12/21 11:24:24;;;;;;;;;;;18.60;64.20;;;;;;5049768;28;1461;-71
2023/12/21 11:26:50;;;;;;;;;;;18.60;64.20;;;;;;5057969;28;1332;-70
2023/12/21 11:29:21;;;;;;;;;;;18.60;64.10;;;;;;5055450;28;1285;-69
2023/12/21 11:31:46;;;;;;;;;;;18.60;64.10;;;;;;5088569;28;1258;-73
2023/12/21 11:34:15;;;;;;;;;;;18.60;64.10;;;;;;5058973;28;1450;-71
2023/12/21 11:36:45;;;;;;;;;;;18.70;64.20;;;;;;5057116;28;1463;-69
2023/12/21 11:39:12;;;;;;;;;;;18.70;64.10;;;;;;5076419;28;1343;-69
2023/12/21 11:41:55;;;;;;;;;;;18.70;64.10;;;;;;5088945;28;1930;-70
2023/12/21 11:44:21;;;;;;;;;;;18.70;64.10;;;;;;5060467;28;1436;-71
2023/12/21 11:46:46;;;;;;;;;;;18.70;64.00;;;;;;5059221;28;1254;-71
2023/12/21 11:49:24;;;;;;;;;;;18.70;64.00;;;;;;5059047;28;1299;-67
2023/12/21 11:51:50;;;;;;;;;;;18.70;63.90;;;;;;5059227;28;1310;-69
2023/12/21 11:54:19;;;;;;;;;;;18.70;63.90;;;;;;5090420;28;918;-69
2023/12/21 11:56:46;;;;;;;;;;;18.70;63.80;;;;;;5061144;28;1318;-68
2023/12/21 11:59:12;;;;;;;;;;;18.70;64.60;;;;;;5064056;28;1226;-69
2023/12/21 12:01:38;;;;;;;;;;;18.80;63.80;;;;;;5060329;28;1961;-68
2023/12/21 12:04:04;;;;;;;;;;;18.70;63.70;;;;;;5057942;28;1456;-71
2023/12/21 12:06:29;;;;;;;;;;;18.80;63.70;;;;;;5060133;28;1462;-72
2023/12/21 12:08:55;;;;;;;;;;;18.80;63.60;;;;;;5061260;28;1380;-71
2023/12/21 12:11:20;;;;;;;;;;;18.80;63.70;;;;;;5083417;28;4064;-71
2023/12/21 12:13:46;;;;;;;;;;;18.80;63.60;;;;;;5093610;28;1811;-71
2023/12/21 12:16:14;;;;;;;;;;;18.80;63.60;;;;;;5061912;28;1517;-71
2023/12/21 12:18:40;;;;;;;;;;;18.80;63.60;;;;;;5062062;28;1435;-72
2023/12/21 12:21:06;;;;;;;;;;;18.80;63.70;;;;;;5090402;28;1995;-73
2023/12/21 12:23:31;;;;;;;;;;;18.80;63.60;;;;;;5058745;28;1339;-70
2023/12/21 12:25:57;;;;;;;;;;;18.80;63.60;;;;;;5062501;28;1390;-71
2023/12/21 12:28:24;;;;;;;;;;;18.80;63.70;;;;;;5074092;28;1423;-73
2023/12/21 12:30:50;;;;;;;;;;;18.80;63.70;;;;;;5077049;28;1464;-70
2023/12/21 12:33:15;;;;;;;;;;;18.80;63.70;;;;;;5063502;28;1322;-71
2023/12/21 12:35:42;;;;;;;;;;;18.80;63.70;;;;;;5092759;28;1511;-70
2023/12/21 12:38:08;;;;;;;;;;;18.70;63.80;;;;;;5058220;28;1449;-71
2023/12/21 12:40:34;;;;;;;;;;;18.70;63.80;;;;;;5092424;28;1965;-70
2023/12/21 12:42:59;;;;;;;;;;;18.70;63.80;;;;;;5092758;28;1437;-71
2023/12/21 12:45:25;;;;;;;;;;;18.70;63.80;;;;;;5058974;28;5514;-71
2023/12/21 12:47:52;;;;;;;;;;;18.70;63.80;;;;;;5092419;28;1476;-70
2023/12/21 12:50:20;;;;;;;;;;;18.70;63.90;;;;;;5057555;28;1509;-73
2023/12/21 12:52:45;;;;;;;;;;;18.70;63.80;;;;;;5058866;28;1119;-71
2023/12/21 12:55:11;;;;;;;;;;;18.70;63.90;;;;;;5091306;28;1391;-70
2023/12/21 12:57:37;;;;;;;;;;;18.70;63.90;;;;;;5077401;28;1415;-70
2023/12/21 13:00:03;;;;;;;;;;;18.70;63.90;;;;;;5092017;28;1393;-70
2023/12/21 13:02:28;;;;;;;;;;;18.70;64.00;;;;;;5060962;28;2017;-70
2023/12/21 13:04:54;;;;;;;;;;;18.70;64.00;;;;;;5094883;28;1578;-70
2023/12/21 13:07:20;;;;;;;;;;;18.70;64.00;;;;;;5050556;28;4319;-71
2023/12/21 13:09:47;;;;;;;;;;;18.70;64.10;;;;;;5059674;28;1298;-71
2023/12/21 13:12:12;;;;;;;;;;;18.60;64.00;;;;;;5061865;28;1539;-71
2023/12/21 13:14:38;;;;;;;;;;;18.70;64.10;;;;;;5092321;28;2040;-70
2023/12/21 13:17:04;;;;;;;;;;;18.60;64.10;;;;;;5059504;28;1405;-71
2023/12/21 13:19:29;;;;;;;;;;;18.60;64.10;;;;;;5063588;28;1660;-72
2023/12/21 13:21:55;;;;;;;;;;;18.60;64.10;;;;;;5094438;28;1909;-72
2023/12/21 13:24:20;;;;;;;;;;;18.60;64.20;;;;;;5064332;28;1368;-71
2023/12/21 13:26:46;;;;;;;;;;;18.60;64.30;;;;;;5062278;28;1413;-69
2023/12/21 13:29:12;;;;;;;;;;;18.60;64.20;;;;;;5093852;28;1374;-70
2023/12/21 13:31:37;;;;;;;;;;;18.60;64.20;;;;;;5092768;28;1570;-70
2023/12/21 13:34:02;;;;;;;;;;;18.60;64.30;;;;;;5063687;28;1304;-71
2023/12/21 13:36:28;;;;;;;;;;;18.60;64.30;;;;;;5062518;28;1363;-70
2023/12/21 13:38:56;;;;;;;;;;;18.60;64.30;;;;;;5062223;28;2192;-71
2023/12/21 13:41:22;;;;;;;;;;;18.60;64.30;;;;;;5061904;28;1886;-71
2023/12/21 13:43:48;;;;;;;;;;;18.50;64.30;;;;;;5062063;28;1418;-70
2023/12/21 13:46:13;;;;;;;;;;;18.60;64.40;;;;;;5061640;28;1238;-71
2023/12/21 13:48:39;;;;;;;;;;;18.60;64.50;;;;;;5057933;28;1570;-72
2023/12/21 13:51:04;;;;;;;;;;;18.60;64.40;;;;;;5056738;28;1351;-72
2023/12/21 13:53:30;;;;;;;;;;;18.60;64.50;;;;;;5092633;28;1372;-73
2023/12/21 13:55:55;;;;;;;;;;;18.50;64.40;;;;;;5059088;28;1411;-73
2023/12/21 13:58:21;;;;;;;;;;;18.50;64.50;;;;;;5057558;28;2032;-73
2023/12/21 14:00:47;;;;;;;;;;;18.50;64.40;;;;;;5089047;28;1894;-73
2023/12/21 14:03:14;;;;;;;;;;;18.50;64.50;;;;;;5062501;28;1362;-71
2023/12/21 14:05:40;;;;;;;;;;;18.60;64.60;;;;;;5058180;28;1524;-74
2023/12/21 14:08:06;;;;;;;;;;;18.50;64.50;;;;;;5057853;28;1491;-73
2023/12/21 14:10:31;;;;;;;;;;;18.50;64.50;;;;;;5091379;28;1305;-72
2023/12/21 14:12:59;;;;;;;;;;;18.50;64.60;;;;;;5058770;28;1241;-73
2023/12/21 14:15:24;;;;;;;;;;;18.50;64.60;;;;;;5059109;28;1378;-73
2023/12/21 14:17:50;;;;;;;;;;;18.50;64.70;;;;;;5056197;28;1324;-73
2023/12/21 14:20:18;;;;;;;;;;;18.50;64.70;;;;;;5058383;28;1539;-70
2023/12/21 14:22:44;;;;;;;;;;;18.50;64.70;;;;;;5058108;28;2014;-72